| time (UTC) | temp F | wind direction | speed MPH | gust MPH | rain 1hr in | rain 24hr in | rain mn in | humidity % | barometer mb |
| 20260505184027 | 68 | 287 | 5.0 | 15.0 | 0.00 | 0.00 | 0.00 | 43 | 1007.7 |
| 20260505183537 | 68 | 255 | 4.0 | 15.0 | 0.00 | 0.00 | 0.00 | 42 | 1007.7 |
| 20260505183036 | 68 | 70 | 6.0 | 14.0 | 0.00 | 0.00 | 0.00 | 42 | 1007.7 |
| 20260505182536 | 68 | 240 | 1.0 | 7.0 | 0.00 | 0.00 | 0.00 | 43 | 1007.3 |
| 20260505182030 | 68 | 59 | 3.0 | 9.0 | 0.00 | 0.00 | 0.00 | 42 | 1007.1 |
| 20260505181533 | 68 | 246 | 2.0 | 13.0 | 0.00 | 0.00 | 0.00 | 43 | 1007.0 |
| 20260505181026 | 69 | 265 | 3.0 | 13.0 | 0.00 | 0.00 | 0.00 | 41 | 1007.1 |
| 20260505180526 | 69 | 250 | 2.0 | 13.0 | 0.00 | 0.00 | 0.00 | 41 | 1007.1 |
| 20260505180022 | 70 | 49 | 4.0 | 13.0 | 0.00 | 0.00 | 0.00 | 40 | 1006.9 |
| 20260505175533 | 71 | 284 | 2.0 | 9.0 | 0.00 | 0.00 | 0.00 | 40 | 1006.8 |
| 20260505175028 | 71 | 32 | 2.0 | 8.0 | 0.00 | 0.00 | 0.00 | 39 | 1006.6 |
| 20260505174529 | 71 | 255 | 2.0 | 7.0 | 0.00 | 0.00 | 0.00 | 40 | 1006.9 |
| 20260505174032 | 71 | 304 | 1.0 | 7.0 | 0.00 | 0.00 | 0.00 | 38 | 1006.8 |
| 20260505173527 | 71 | 334 | 1.0 | 7.0 | 0.00 | 0.00 | 0.00 | 36 | 1006.7 |
| 20260505173022 | 72 | 239 | 0.0 | 8.0 | 0.00 | 0.00 | 0.00 | 38 | 1006.7 |
| 20260505172531 | 72 | 250 | 2.0 | 9.0 | 0.00 | 0.00 | 0.00 | 35 | 1006.7 |
| 20260505172028 | 73 | 340 | 2.0 | 10.0 | 0.00 | 0.00 | 0.00 | 38 | 1006.6 |
| 20260505171522 | 72 | 174 | 1.0 | 8.0 | 0.00 | 0.00 | 0.00 | 38 | 1006.5 |
| 20260505171032 | 72 | 219 | 0.0 | 8.0 | 0.00 | 0.00 | 0.00 | 37 | 1006.5 |
| 20260505170527 | 72 | 320 | 0.0 | 5.0 | 0.00 | 0.00 | 0.00 | 37 | 1006.5 |
| 20260505170022 | 72 | 255 | 1.0 | 9.0 | 0.00 | 0.00 | 0.00 | 37 | 1006.5 |
| 20260505165533 | 72 | 229 | 2.0 | 9.0 | 0.00 | 0.00 | 0.00 | 36 | 1006.4 |
| 20260505165028 | 73 | 245 | 1.0 | 4.0 | 0.00 | 0.00 | 0.00 | 37 | 1006.3 |
| 20260505164523 | 73 | 139 | 0.0 | 5.0 | 0.00 | 0.00 | 0.00 | 36 | 1006.3 |
| 20260505164033 | 73 | 188 | 0.0 | 4.0 | 0.00 | 0.00 | 0.00 | 38 | 1006.3 |
| 20260505163530 | 72 | 98 | 0.0 | 4.0 | 0.00 | 0.00 | 0.00 | 38 | 1006.3 |
| 20260505163029 | 72 | 287 | 0.0 | 3.0 | 0.00 | 0.00 | 0.00 | 38 | 1006.5 |
| 20260505162534 | 71 | 226 | 0.0 | 2.0 | 0.00 | 0.00 | 0.00 | 40 | 1006.4 |
| 20260505162030 | 70 | 152 | 0.0 | 3.0 | 0.00 | 0.00 | 0.00 | 40 | 1006.4 |
| 20260505161525 | 69 | 265 | 0.0 | 3.0 | 0.00 | 0.00 | 0.00 | 40 | 1006.5 |
| 20260505161034 | 69 | 170 | 0.0 | 2.0 | 0.00 | 0.00 | 0.00 | 42 | 1006.5 |
| 20260505160530 | 69 | 285 | 0.0 | 2.0 | 0.00 | 0.00 | 0.00 | 42 | 1006.4 |
| 20260505153028 | 66 | 252 | 0.0 | 3.0 | 0.00 | 0.00 | 0.00 | 50 | 1006.6 |
| 20260505152535 | 66 | 288 | 0.0 | 3.0 | 0.00 | 0.00 | 0.00 | 50 | 1006.7 |
| 20260505152030 | 65 | 210 | 0.0 | 1.0 | 0.00 | 0.00 | 0.00 | 52 | 1006.6 |
| 20260505151525 | 65 | 229 | 0.0 | 1.0 | 0.00 | 0.00 | 0.00 | 54 | 1006.7 |
| 20260505151023 | 65 | 162 | 0.0 | 0.0 | 0.00 | 0.00 | 0.00 | 55 | 1006.7 |
| 20260505150535 | 65 | 162 | 0.0 | 1.0 | 0.00 | 0.00 | 0.00 | 54 | 1006.6 |
| 20260505140529 | 60 | 121 | 0.0 | 0.0 | 0.00 | 0.00 | 0.00 | 62 | 1007.1 |
| 20260505125029 | 56 | 153 | 0.0 | 1.0 | 0.00 | 0.00 | 0.00 | 66 | 1006.6 |
| 20260505124523 | 56 | 138 | 0.0 | 1.0 | 0.00 | 0.00 | 0.00 | 66 | 1006.4 |
| 20260505124034 | 57 | 138 | 0.0 | 0.0 | 0.00 | 0.00 | 0.00 | 66 | 1006.3 |
| 20260505123529 | 57 | 138 | 0.0 | 0.0 | 0.00 | 0.00 | 0.00 | 65 | 1006.3 |
| 20260505123025 | 57 | 139 | 0.0 | 0.0 | 0.00 | 0.00 | 0.00 | 64 | 1006.3 |
| 20260505122535 | 57 | 138 | 0.0 | 1.0 | 0.00 | 0.00 | 0.00 | 64 | 1006.3 |
| 20260505122029 | 57 | 138 | 0.0 | 1.0 | 0.00 | 0.00 | 0.00 | 63 | 1006.2 |
| 20260505121526 | 57 | 177 | 0.0 | 0.0 | 0.00 | 0.00 | 0.00 | 64 | 1006.1 |
| 20260505121021 | 57 | 177 | 0.0 | 0.0 | 0.00 | 0.00 | 0.00 | 64 | 1006.1 |
| 20260505120530 | 57 | 177 | 0.0 | 0.0 | 0.00 | 0.00 | 0.00 | 63 | 1006.0 |
| 20260505120026 | 57 | 177 | 0.0 | 0.0 | 0.00 | 0.00 | 0.00 | 63 | 1006.1 |
| 20260505115535 | 57 | 178 | 0.0 | 1.0 | 0.00 | 0.00 | 0.00 | 63 | 1006.1 |
| 20260505115029 | 57 | 177 | 0.0 | 1.0 | 0.00 | 0.00 | 0.00 | 63 | 1006.0 |
| 20260505114524 | 57 | 204 | 0.0 | 1.0 | 0.00 | 0.00 | 0.00 | 63 | 1006.1 |
| 20260505114034 | 57 | 210 | 0.0 | 0.0 | 0.00 | 0.00 | 0.00 | 64 | 1006.1 |
| 20260505113530 | 57 | 210 | 0.0 | 1.0 | 0.00 | 0.00 | 0.00 | 63 | 1006.1 |
| 20260505113025 | 57 | 210 | 0.0 | 1.0 | 0.00 | 0.00 | 0.00 | 63 | 1006.0 |
| 20260505112521 | 57 | 138 | 0.0 | 0.0 | 0.00 | 0.00 | 0.00 | 61 | 1006.0 |
| 20260505112031 | 57 | 138 | 0.0 | 0.0 | 0.00 | 0.00 | 0.00 | 60 | 1006.0 |
| 20260505111527 | 57 | 138 | 0.0 | 0.0 | 0.00 | 0.00 | 0.00 | 58 | 1005.8 |
| 20260505111022 | 58 | 138 | 0.0 | 0.0 | 0.00 | 0.00 | 0.00 | 58 | 1005.8 |
| 20260505110532 | 58 | 138 | 0.0 | 1.0 | 0.00 | 0.00 | 0.00 | 58 | 1005.8 |
| 20260505102021 | 55 | 115 | 0.0 | 0.0 | 0.00 | 0.00 | 0.00 | 63 | 1006.1 |
| 20260505101534 | 55 | 114 | 0.0 | 0.0 | 0.00 | 0.00 | 0.00 | 62 | 1006.0 |
| 20260505101025 | 56 | 114 | 0.0 | 0.0 | 0.00 | 0.00 | 0.00 | 61 | 1005.9 |
| 20260505100538 | 56 | 114 | 0.0 | 0.0 | 0.00 | 0.00 | 0.00 | 61 | 1005.8 |
| 20260505100031 | 56 | 114 | 0.0 | 0.0 | 0.00 | 0.00 | 0.00 | 61 | 1005.9 |
| 20260505095525 | 56 | 114 | 0.0 | 0.0 | 0.00 | 0.00 | 0.00 | 61 | 1005.7 |
| 20260505095020 | 56 | 114 | 0.0 | 0.0 | 0.00 | 0.00 | 0.00 | 62 | 1005.6 |
| 20260505094535 | 57 | 115 | 0.0 | 0.0 | 0.00 | 0.00 | 0.00 | 61 | 1005.7 |
| 20260505094027 | 57 | 114 | 0.0 | 0.0 | 0.00 | 0.00 | 0.00 | 60 | 1005.8 |
| 20260505093031 | 57 | 114 | 0.0 | 0.0 | 0.00 | 0.00 | 0.00 | 59 | 1005.8 |
| 20260505092521 | 57 | 114 | 0.0 | 0.0 | 0.00 | 0.00 | 0.00 | 58 | 1005.6 |
| 20260505092039 | 57 | 114 | 0.0 | 0.0 | 0.00 | 0.00 | 0.00 | 57 | 1005.6 |
| 20260505091528 | 57 | 114 | 0.0 | 0.0 | 0.00 | 0.00 | 0.00 | 57 | 1005.7 |
| 20260505091035 | 57 | 114 | 0.0 | 1.0 | 0.00 | 0.00 | 0.00 | 57 | 1005.6 |
| 20260505090529 | 57 | 114 | 0.0 | 0.0 | 0.00 | 0.00 | 0.00 | 55 | 1005.7 |
| 20260505090025 | 58 | 114 | 0.0 | 0.0 | 0.00 | 0.00 | 0.00 | 55 | 1005.9 |
| 20260505085537 | 58 | 114 | 0.0 | 0.0 | 0.00 | 0.00 | 0.00 | 55 | 1006.2 |
| 20260505085033 | 59 | 114 | 0.0 | 0.0 | 0.00 | 0.00 | 0.00 | 53 | 1006.2 |
| 20260505084528 | 59 | 114 | 0.0 | 1.0 | 0.00 | 0.00 | 0.00 | 51 | 1006.2 |
| 20260505084038 | 59 | 114 | 0.0 | 1.0 | 0.00 | 0.00 | 0.00 | 51 | 1006.1 |
| 20260505083532 | 60 | 114 | 0.0 | 1.0 | 0.00 | 0.00 | 0.00 | 51 | 1006.1 |
| 20260505083029 | 60 | 114 | 0.0 | 1.0 | 0.00 | 0.00 | 0.00 | 50 | 1006.2 |
| 20260505082523 | 60 | 114 | 0.0 | 1.0 | 0.00 | 0.00 | 0.00 | 50 | 1006.3 |
| 20260505082033 | 60 | 256 | 0.0 | 0.0 | 0.00 | 0.00 | 0.00 | 50 | 1006.1 |
| 20260505081532 | 61 | 256 | 0.0 | 0.0 | 0.00 | 0.00 | 0.00 | 50 | 1006.1 |
| 20260505081023 | 62 | 256 | 0.0 | 0.0 | 0.00 | 0.00 | 0.00 | 50 | 1006.3 |
| 20260505080533 | 62 | 256 | 0.0 | 0.0 | 0.00 | 0.00 | 0.00 | 49 | 1006.2 |
| 20260505080032 | 62 | 256 | 0.0 | 1.0 | 0.00 | 0.00 | 0.00 | 48 | 1006.2 |
| 20260505075524 | 63 | 250 | 0.0 | 1.0 | 0.00 | 0.00 | 0.00 | 48 | 1006.3 |
| 20260505075032 | 63 | 249 | 0.0 | 1.0 | 0.00 | 0.00 | 0.00 | 47 | 1006.3 |
| 20260505074529 | 63 | 250 | 0.0 | 1.0 | 0.00 | 0.00 | 0.00 | 47 | 1006.2 |
| 20260505074039 | 64 | 285 | 0.0 | 1.0 | 0.00 | 0.00 | 0.00 | 48 | 1006.3 |
| 20260505073618 | 64 | 110 | 0.0 | 1.0 | 0.00 | 0.00 | 0.00 | 46 | 1006.1 |
| 20260505072530 | 64 | 235 | 0.0 | 1.0 | 0.00 | 0.00 | 0.00 | 45 | 1006.5 |
| 20260505072024 | 64 | 267 | 0.0 | 3.0 | 0.00 | 0.00 | 0.00 | 46 | 1006.5 |
| 20260505071535 | 63 | 274 | 0.0 | 2.0 | 0.00 | 0.00 | 0.00 | 46 | 1006.6 |
| 20260505071030 | 63 | 287 | 0.0 | 2.0 | 0.00 | 0.00 | 0.00 | 46 | 1006.5 |
| 20260505070527 | 62 | 257 | 0.0 | 1.0 | 0.00 | 0.00 | 0.00 | 46 | 1006.5 |
| 20260505070042 | 62 | 195 | 0.0 | 1.0 | 0.00 | 0.00 | 0.00 | 45 | 1006.5 |
| 20260505065531 | 62 | 191 | 0.0 | 0.0 | 0.00 | 0.00 | 0.00 | 42 | 1006.3 |
| 20260505065029 | 62 | 191 | 0.0 | 0.0 | 0.00 | 0.00 | 0.00 | 42 | 1006.2 |
| 20260505064537 | 62 | 191 | 0.0 | 0.0 | 0.00 | 0.00 | 0.00 | 40 | 1006.1 |
| 20260505064032 | 62 | 191 | 0.0 | 0.0 | 0.00 | 0.00 | 0.00 | 38 | 1006.1 |
| 20260505063526 | 62 | 191 | 0.0 | 0.0 | 0.00 | 0.00 | 0.00 | 38 | 1006.2 |
| 20260505063024 | 62 | 191 | 0.0 | 0.0 | 0.00 | 0.00 | 0.00 | 38 | 1006.2 |
| 20260505062533 | 62 | 191 | 0.0 | 0.0 | 0.00 | 0.00 | 0.00 | 38 | 1006.3 |
| 20260505062028 | 62 | 192 | 0.0 | 0.0 | 0.00 | 0.00 | 0.00 | 40 | 1006.2 |
| 20260505061523 | 62 | 191 | 0.0 | 0.0 | 0.00 | 0.00 | 0.00 | 38 | 1006.2 |
| 20260505061033 | 62 | 191 | 0.0 | 0.0 | 0.00 | 0.00 | 0.00 | 36 | 1006.1 |
| 20260505060529 | 63 | 191 | 0.0 | 0.0 | 0.00 | 0.00 | 0.00 | 36 | 1006.2 |
| 20260505060036 | 63 | 191 | 0.0 | 0.0 | 0.00 | 0.00 | 0.00 | 37 | 1006.2 |
| 20260505055533 | 63 | 191 | 0.0 | 0.0 | 0.00 | 0.00 | 0.00 | 39 | 1006.3 |
| 20260505055027 | 63 | 191 | 0.0 | 0.0 | 0.00 | 0.00 | 0.00 | 37 | 1006.5 |
| 20260505054534 | 63 | 191 | 0.0 | 1.0 | 0.00 | 0.00 | 0.00 | 38 | 1006.5 |
| 20260505054035 | 63 | 191 | 0.0 | 0.0 | 0.00 | 0.00 | 0.00 | 36 | 1006.5 |
| 20260505053529 | 64 | 191 | 0.0 | 0.0 | 0.00 | 0.00 | 0.00 | 35 | 1006.5 |
| 20260505053022 | 64 | 191 | 0.0 | 0.0 | 0.00 | 0.00 | 0.00 | 34 | 1006.5 |
| 20260505052533 | 64 | 191 | 0.0 | 0.0 | 0.00 | 0.00 | 0.00 | 33 | 1006.3 |
| 20260505052028 | 65 | 191 | 0.0 | 0.0 | 0.00 | 0.00 | 0.00 | 34 | 1006.3 |
| 20260505051523 | 65 | 191 | 0.0 | 0.0 | 0.00 | 0.00 | 0.00 | 34 | 1006.4 |
| 20260505051033 | 66 | 191 | 0.0 | 0.0 | 0.00 | 0.00 | 0.00 | 33 | 1006.4 |
| 20260505050531 | 66 | 191 | 0.0 | 0.0 | 0.00 | 0.00 | 0.00 | 31 | 1006.3 |
| 20260505041532 | 69 | 46 | 0.0 | 1.0 | 0.00 | 0.00 | 0.00 | 25 | 1006.3 |
| 20260505041026 | 69 | 46 | 0.0 | 1.0 | 0.00 | 0.00 | 0.00 | 26 | 1006.2 |
| 20260505040537 | 69 | 22 | 0.0 | 1.0 | 0.00 | 0.00 | 0.00 | 26 | 1006.3 |
| 20260505040032 | 70 | 238 | 0.0 | 1.0 | 0.00 | 0.00 | 0.00 | 26 | 1006.2 |
| 20260505035525 | 70 | 322 | 0.0 | 4.0 | 0.00 | 0.00 | 0.00 | 25 | 1006.2 |
| 20260505035038 | 70 | 145 | 0.0 | 4.0 | 0.00 | 0.00 | 0.00 | 25 | 1006.0 |
| 20260505034530 | 71 | 260 | 0.0 | 2.0 | 0.00 | 0.00 | 0.00 | 25 | 1005.9 |
| 20260505034027 | 71 | 280 | 0.0 | 2.0 | 0.00 | 0.00 | 0.00 | 24 | 1005.9 |
| 20260505033523 | 71 | 236 | 0.0 | 2.0 | 0.00 | 0.00 | 0.00 | 24 | 1005.8 |
| 20260505033054 | 71 | 270 | 0.0 | 2.0 | 0.00 | 0.00 | 0.00 | 25 | 1005.6 |
| 20260505032526 | 72 | 238 | 0.0 | 3.0 | 0.00 | 0.00 | 0.00 | 23 | 1005.6 |
| 20260505032037 | 72 | 69 | 0.0 | 3.0 | 0.00 | 0.00 | 0.00 | 24 | 1005.5 |
| 20260505031530 | 72 | 287 | 0.0 | 6.0 | 0.00 | 0.00 | 0.00 | 23 | 1005.5 |
| 20260505031026 | 72 | 92 | 0.0 | 6.0 | 0.00 | 0.00 | 0.00 | 24 | 1005.4 |
| 20260505030537 | 72 | 109 | 0.0 | 2.0 | 0.00 | 0.00 | 0.00 | 25 | 1005.4 |
| 20260505030031 | 73 | 245 | 0.0 | 1.0 | 0.00 | 0.00 | 0.00 | 25 | 1005.2 |
| 20260505025529 | 73 | 243 | 0.0 | 5.0 | 0.00 | 0.00 | 0.00 | 24 | 1005.1 |
| 20260505025034 | 73 | 272 | 0.0 | 5.0 | 0.00 | 0.00 | 0.00 | 23 | 1005.1 |
| 20260505024530 | 73 | 249 | 0.0 | 5.0 | 0.00 | 0.00 | 0.00 | 22 | 1005.2 |
| 20260505024025 | 73 | 294 | 0.0 | 6.0 | 0.00 | 0.00 | 0.00 | 23 | 1005.1 |
| 20260505023533 | 73 | 262 | 1.0 | 6.0 | 0.00 | 0.00 | 0.00 | 25 | 1005.1 |
| 20260505023029 | 74 | 335 | 0.0 | 3.0 | 0.00 | 0.00 | 0.00 | 23 | 1005.0 |
| 20260505022524 | 74 | 340 | 0.0 | 3.0 | 0.00 | 0.00 | 0.00 | 23 | 1004.9 |
| 20260505022017 | 74 | 295 | 0.0 | 2.0 | 0.00 | 0.00 | 0.00 | 23 | 1004.8 |
| 20260505021531 | 74 | 242 | 0.0 | 2.0 | 0.00 | 0.00 | 0.00 | 25 | 1004.7 |
| 20260505021034 | 75 | 337 | 0.0 | 4.0 | 0.00 | 0.00 | 0.00 | 23 | 1004.6 |
| 20260505020529 | 75 | 265 | 0.0 | 4.0 | 0.00 | 0.00 | 0.00 | 25 | 1004.6 |
| 20260505020023 | 75 | 274 | 1.0 | 3.0 | 0.00 | 0.00 | 0.00 | 23 | 1004.5 |
| 20260505015534 | 75 | 253 | 0.0 | 2.0 | 0.00 | 0.00 | 0.00 | 25 | 1004.4 |
| 20260505015027 | 75 | 278 | 0.0 | 3.0 | 0.00 | 0.00 | 0.00 | 26 | 1004.3 |
| 20260505014523 | 76 | 278 | 0.0 | 3.0 | 0.00 | 0.00 | 0.00 | 26 | 1004.2 |
| 20260505014033 | 76 | 301 | 0.0 | 2.0 | 0.00 | 0.00 | 0.00 | 26 | 1004.1 |
| 20260505013528 | 76 | 249 | 0.0 | 5.0 | 0.00 | 0.00 | 0.00 | 24 | 1004.1 |
| 20260505013037 | 76 | 305 | 0.0 | 4.0 | 0.00 | 0.00 | 0.00 | 25 | 1004.1 |
| 20260505012530 | 76 | 246 | 0.0 | 4.0 | 0.00 | 0.00 | 0.00 | 24 | 1004.0 |
| 20260505012035 | 77 | 144 | 0.0 | 5.0 | 0.00 | 0.00 | 0.00 | 26 | 1004.1 |
| 20260505011531 | 77 | 250 | 0.0 | 5.0 | 0.00 | 0.00 | 0.00 | 24 | 1004.1 |
| 20260505011025 | 77 | 246 | 0.0 | 7.0 | 0.00 | 0.00 | 0.00 | 23 | 1004.1 |
| 20260505010534 | 77 | 270 | 2.0 | 7.0 | 0.00 | 0.00 | 0.00 | 23 | 1004.0 |
| 20260505010032 | 77 | 266 | 0.0 | 6.0 | 0.00 | 0.00 | 0.00 | 24 | 1003.9 |
| 20260505005525 | 78 | 295 | 0.0 | 9.0 | 0.00 | 0.00 | 0.00 | 24 | 1003.9 |
| 20260505005036 | 78 | 249 | 2.0 | 9.0 | 0.00 | 0.00 | 0.00 | 23 | 1003.9 |
| 20260505004541 | 78 | 277 | 0.0 | 4.0 | 0.00 | 0.00 | 0.00 | 23 | 1004.0 |
| 20260505004025 | 78 | 72 | 1.0 | 6.0 | 0.00 | 0.00 | 0.00 | 23 | 1004.1 |
| 20260505003537 | 78 | 266 | 1.0 | 6.0 | 0.00 | 0.00 | 0.00 | 23 | 1004.2 |
| 20260505003031 | 78 | 292 | 1.0 | 5.0 | 0.00 | 0.00 | 0.00 | 23 | 1004.5 |
| 20260505002524 | 79 | 152 | 1.0 | 5.0 | 0.00 | 0.00 | 0.00 | 22 | 1004.6 |
| 20260505002034 | 79 | 227 | 1.0 | 6.0 | 0.00 | 0.00 | 0.00 | 21 | 1004.6 |
| 20260505001527 | 79 | 260 | 2.0 | 9.0 | 0.00 | 0.00 | 0.00 | 21 | 1004.7 |
| 20260505001023 | 79 | 297 | 2.0 | 9.0 | 0.00 | 0.00 | 0.00 | 22 | 1004.6 |
| 20260505000537 | 79 | 98 | 1.0 | 7.0 | 0.00 | 0.00 | 0.00 | 22 | 1004.8 |
| 20260505000028 | 79 | 293 | 2.0 | 8.0 | 0.00 | 0.00 | 0.00 | 21 | 1004.8 |
| 20260504235524 | 79 | 222 | 2.0 | 6.0 | 0.00 | 0.00 | 0.00 | 21 | 1004.8 |
| 20260504235034 | 79 | 264 | 1.0 | 6.0 | 0.00 | 0.00 | 0.00 | 21 | 1004.7 |
| 20260504234539 | 80 | 239 | 2.0 | 6.0 | 0.00 | 0.00 | 0.00 | 20 | 1004.8 |
| 20260504234027 | 80 | 298 | 1.0 | 6.0 | 0.00 | 0.00 | 0.00 | 21 | 1004.8 |
| 20260504233534 | 80 | 141 | 1.0 | 9.0 | 0.00 | 0.00 | 0.00 | 20 | 1004.8 |
| 20260504233032 | 80 | 235 | 3.0 | 9.0 | 0.00 | 0.00 | 0.00 | 20 | 1004.8 |
| 20260504232522 | 80 | 6 | 1.0 | 9.0 | 0.00 | 0.00 | 0.00 | 20 | 1004.9 |
| 20260504232034 | 80 | 100 | 3.0 | 7.0 | 0.00 | 0.00 | 0.00 | 20 | 1004.7 |
| 20260504231538 | 80 | 270 | 1.0 | 7.0 | 0.00 | 0.00 | 0.00 | 21 | 1004.8 |
| 20260504231021 | 81 | 276 | 1.0 | 6.0 | 0.00 | 0.00 | 0.00 | 20 | 1004.7 |
| 20260504230530 | 81 | 274 | 0.0 | 7.0 | 0.00 | 0.00 | 0.00 | 21 | 1004.7 |
| 20260504230028 | 81 | 194 | 2.0 | 9.0 | 0.00 | 0.00 | 0.00 | 21 | 1004.7 |
| 20260504225528 | 82 | 4 | 1.0 | 11.0 | 0.00 | 0.00 | 0.00 | 21 | 1004.7 |
| 20260504225034 | 82 | 197 | 3.0 | 11.0 | 0.00 | 0.00 | 0.00 | 20 | 1004.6 |
| 20260504224529 | 82 | 232 | 3.0 | 8.0 | 0.00 | 0.00 | 0.00 | 20 | 1004.8 |
| 20260504224022 | 83 | 245 | 2.0 | 8.0 | 0.00 | 0.00 | 0.00 | 20 | 1004.6 |
| 20260504223532 | 84 | 264 | 2.0 | 6.0 | 0.00 | 0.00 | 0.00 | 19 | 1004.6 |
| 20260504223025 | 84 | 159 | 1.0 | 6.0 | 0.00 | 0.00 | 0.00 | 19 | 1004.7 |
| 20260504222521 | 84 | 249 | 2.0 | 6.0 | 0.00 | 0.00 | 0.00 | 19 | 1004.8 |
| 20260504222031 | 83 | 312 | 1.0 | 9.0 | 0.00 | 0.00 | 0.00 | 18 | 1004.8 |
| 20260504221525 | 83 | 243 | 2.0 | 11.0 | 0.00 | 0.00 | 0.00 | 18 | 1005.0 |
| 20260504221036 | 84 | 266 | 3.0 | 11.0 | 0.00 | 0.00 | 0.00 | 17 | 1005.0 |
| 20260504220531 | 85 | 319 | 3.0 | 10.0 | 0.00 | 0.00 | 0.00 | 16 | 1005.2 |
| 20260504220027 | 85 | 17 | 2.0 | 10.0 | 0.00 | 0.00 | 0.00 | 16 | 1005.1 |
| 20260504215537 | 85 | 291 | 4.0 | 10.0 | 0.00 | 0.00 | 0.00 | 16 | 1005.4 |
| 20260504215031 | 85 | 288 | 3.0 | 7.0 | 0.00 | 0.00 | 0.00 | 17 | 1005.3 |
| 20260504214535 | 85 | 278 | 2.0 | 9.0 | 0.00 | 0.00 | 0.00 | 18 | 1005.4 |
| 20260504214037 | 85 | 167 | 3.0 | 9.0 | 0.00 | 0.00 | 0.00 | 19 | 1005.8 |
| 20260504213532 | 84 | 57 | 3.0 | 10.0 | 0.00 | 0.00 | 0.00 | 18 | 1005.8 |
| 20260504213030 | 84 | 67 | 2.0 | 10.0 | 0.00 | 0.00 | 0.00 | 18 | 1005.9 |
| 20260504212536 | 84 | 121 | 2.0 | 8.0 | 0.00 | 0.00 | 0.00 | 19 | 1006.0 |
| 20260504212034 | 83 | 53 | 1.0 | 8.0 | 0.00 | 0.00 | 0.00 | 19 | 1006.1 |
| 20260504211526 | 83 | 252 | 3.0 | 8.0 | 0.00 | 0.00 | 0.00 | 21 | 1006.2 |
| 20260504211022 | 82 | 298 | 1.0 | 8.0 | 0.00 | 0.00 | 0.00 | 20 | 1006.2 |
| 20260504210533 | 81 | 36 | 1.0 | 8.0 | 0.00 | 0.00 | 0.00 | 22 | 1006.4 |
| 20260504210028 | 82 | 257 | 1.0 | 4.0 | 0.00 | 0.00 | 0.00 | 22 | 1006.4 |
| 20260504205526 | 82 | 108 | 2.0 | 5.0 | 0.00 | 0.00 | 0.00 | 22 | 1006.4 |
| 20260504205033 | 81 | 248 | 1.0 | 6.0 | 0.00 | 0.00 | 0.00 | 22 | 1006.5 |
| 20260504204554 | 81 | 260 | 1.0 | 6.0 | 0.00 | 0.00 | 0.00 | 24 | 1006.7 |
| 20260504204034 | 79 | 263 | 1.0 | 7.0 | 0.00 | 0.00 | 0.00 | 24 | 1006.8 |
| 20260504203535 | 79 | 210 | 3.0 | 7.0 | 0.00 | 0.00 | 0.00 | 23 | 1006.8 |
| 20260504203028 | 79 | 226 | 2.0 | 8.0 | 0.00 | 0.00 | 0.00 | 23 | 1007.0 |
| 20260504202532 | 79 | 285 | 0.0 | 8.0 | 0.00 | 0.00 | 0.00 | 24 | 1007.0 |
| 20260504202042 | 80 | 321 | 1.0 | 6.0 | 0.00 | 0.00 | 0.00 | 22 | 1007.1 |
| 20260504201536 | 80 | 232 | 0.0 | 5.0 | 0.00 | 0.00 | 0.00 | 24 | 1007.0 |
| 20260504201029 | 81 | 304 | 2.0 | 7.0 | 0.00 | 0.00 | 0.00 | 23 | 1007.0 |
| 20260504200521 | 81 | 253 | 2.0 | 9.0 | 0.00 | 0.00 | 0.00 | 24 | 1007.0 |
| 20260504200039 | 81 | 174 | 3.0 | 9.0 | 0.00 | 0.00 | 0.00 | 23 | 1007.1 |
| 20260504195530 | 80 | 278 | 3.0 | 11.0 | 0.00 | 0.00 | 0.00 | 23 | 1007.2 |
| 20260504195026 | 80 | 248 | 3.0 | 11.0 | 0.00 | 0.00 | 0.00 | 23 | 1007.4 |
| 20260504194544 | 79 | 240 | 2.0 | 8.0 | 0.00 | 0.00 | 0.00 | 24 | 1007.5 |
| 20260504194031 | 78 | 250 | 2.0 | 11.0 | 0.00 | 0.00 | 0.00 | 25 | 1007.4 |
| 20260504193524 | 78 | 226 | 2.0 | 11.0 | 0.00 | 0.00 | 0.00 | 25 | 1007.7 |
| 20260504193036 | 77 | 156 | 1.0 | 4.0 | 0.00 | 0.00 | 0.00 | 26 | 1007.7 |
| 20260504192531 | 77 | 252 | 1.0 | 8.0 | 0.00 | 0.00 | 0.00 | 26 | 1007.8 |
| 20260504192025 | 77 | 287 | 2.0 | 8.0 | 0.00 | 0.00 | 0.00 | 26 | 1007.8 |
| 20260504191535 | 77 | 250 | 0.0 | 7.0 | 0.00 | 0.00 | 0.00 | 28 | 1007.8 |
| 20260504191028 | 77 | 135 | 1.0 | 7.0 | 0.00 | 0.00 | 0.00 | 30 | 1008.0 |
| 20260504190524 | 76 | 266 | 0.0 | 2.0 | 0.00 | 0.00 | 0.00 | 32 | 1008.0 |
| 20260504190037 | 76 | 246 | 0.0 | 2.0 | 0.00 | 0.00 | 0.00 | 31 | 1008.2 |
| 20260504185527 | 75 | 239 | 0.0 | 2.0 | 0.00 | 0.00 | 0.00 | 31 | 1008.3 |
| 20260504185023 | 74 | 232 | 0.0 | 4.0 | 0.00 | 0.00 | 0.00 | 33 | 1008.4 |
| 20260504184533 | 74 | 253 | 0.0 | 4.0 | 0.00 | 0.00 | 0.00 | 32 | 1008.6 |